createdAt,value
2022-10-13T00:00:49.883Z,13.37
2022-10-13T00:03:17.674Z,15.90
2022-10-13T00:05:49.750Z,16.13
2022-10-13T00:08:20.248Z,14.77
2022-10-13T00:10:49.639Z,12.40
2022-10-13T00:13:17.599Z,11.70
2022-10-13T00:15:45.897Z,15.83
2022-10-13T00:18:13.554Z,22.13
2022-10-13T00:20:46.089Z,16.87
2022-10-13T00:23:13.861Z,25.37
2022-10-13T00:25:45.130Z,18.53
2022-10-13T00:28:12.822Z,24.47
2022-10-13T00:30:39.912Z,16.50
2022-10-13T00:33:07.580Z,15.87
2022-10-13T00:35:34.373Z,17.43
2022-10-13T00:38:01.018Z,17.03
2022-10-13T00:40:27.662Z,16.00
2022-10-13T00:42:54.271Z,18.13
2022-10-13T00:45:25.362Z,19.97
2022-10-13T00:47:56.837Z,15.03
2022-10-13T00:50:31.969Z,19.10
2022-10-13T00:53:00.026Z,13.23
2022-10-13T00:55:30.840Z,16.13
2022-10-13T00:58:05.231Z,14.37
2022-10-13T01:00:33.268Z,16.97
2022-10-13T01:03:01.331Z,14.67
2022-10-13T01:05:28.629Z,13.23
2022-10-13T01:07:56.080Z,16.67
2022-10-13T01:10:31.757Z,14.73
2022-10-13T01:13:16.921Z,14.17
2022-10-13T01:15:54.346Z,16.93
2022-10-13T01:18:37.396Z,16.33
2022-10-13T01:21:25.666Z,14.57
2022-10-13T01:24:43.652Z,20.40
2022-10-13T01:27:16.485Z,15.93
2022-10-13T01:30:04.348Z,14.57
2022-10-13T01:32:48.500Z,14.97
2022-10-13T01:35:33.137Z,14.53
2022-10-13T01:38:08.682Z,18.63
2022-10-13T01:40:49.226Z,22.17
2022-10-13T01:43:29.462Z,15.60
2022-10-13T01:46:03.903Z,18.70
2022-10-13T01:48:32.745Z,17.03
2022-10-13T01:51:00.538Z,18.37
2022-10-13T01:53:28.840Z,17.23
2022-10-13T01:56:00.432Z,18.33
2022-10-13T01:58:33.079Z,19.57
2022-10-13T02:01:24.147Z,15.17
2022-10-13T02:04:14.862Z,15.17
2022-10-13T02:06:59.912Z,14.60
2022-10-13T02:09:55.874Z,13.77
2022-10-13T02:12:58.680Z,18.07
2022-10-13T02:15:35.756Z,18.20
2022-10-13T02:18:03.816Z,16.73
2022-10-13T02:20:31.815Z,16.17
2022-10-13T02:23:04.251Z,16.43
2022-10-13T02:25:31.907Z,20.93
2022-10-13T02:28:00.747Z,18.80
2022-10-13T02:30:30.045Z,13.20
2022-10-13T02:32:56.748Z,12.90
2022-10-13T02:35:24.140Z,17.03
2022-10-13T02:37:50.832Z,14.60
2022-10-13T02:40:17.672Z,17.70
2022-10-13T02:42:44.457Z,18.23
2022-10-13T02:45:11.786Z,24.70
2022-10-13T02:47:38.602Z,23.23
2022-10-13T02:50:05.745Z,12.73
2022-10-13T02:52:32.543Z,12.23
2022-10-13T02:54:59.194Z,19.93
2022-10-13T02:57:25.934Z,23.23
2022-10-13T02:59:52.738Z,21.87
2022-10-13T03:02:19.693Z,25.77
2022-10-13T03:04:47.180Z,35.40
2022-10-13T03:07:13.847Z,32.00
2022-10-13T03:09:40.759Z,33.93
2022-10-13T03:12:07.640Z,86.17
2022-10-13T03:14:34.392Z,57.67
2022-10-13T03:17:01.463Z,41.87
2022-10-13T03:19:28.234Z,41.43
2022-10-13T03:21:55.155Z,44.70
2022-10-13T03:24:21.804Z,44.70
2022-10-13T03:26:48.427Z,91.83
2022-10-13T03:29:16.855Z,109.10
2022-10-13T03:31:43.897Z,63.70
2022-10-13T03:34:11.766Z,51.57
2022-10-13T03:36:38.733Z,86.63
2022-10-13T03:39:05.356Z,115.10
2022-10-13T03:41:32.096Z,36.40
2022-10-13T03:43:58.789Z,111.83
2022-10-13T03:46:28.833Z,42.27
2022-10-13T03:48:55.717Z,120.00
2022-10-13T03:51:23.803Z,137.77
2022-10-13T03:53:51.890Z,92.27
2022-10-13T03:56:21.663Z,55.70
2022-10-13T03:58:53.523Z,88.40
2022-10-13T04:01:24.370Z,72.07
2022-10-13T04:03:53.838Z,36.03
2022-10-13T04:06:20.494Z,31.83
2022-10-13T04:08:47.390Z,27.10
2022-10-13T04:11:15.813Z,91.67
2022-10-13T04:13:43.178Z,37.13
2022-10-13T04:16:17.227Z,36.17
2022-10-13T04:18:45.080Z,39.07
2022-10-13T04:21:14.645Z,39.47
2022-10-13T04:23:41.828Z,29.73
2022-10-13T04:26:21.940Z,26.37
2022-10-13T04:28:50.450Z,31.87
2022-10-13T04:31:17.304Z,25.50
2022-10-13T04:33:45.683Z,21.80
2022-10-13T04:36:14.014Z,28.17
2022-10-13T04:38:41.989Z,24.87
2022-10-13T04:41:09.858Z,25.87
2022-10-13T04:43:36.833Z,22.03
2022-10-13T04:46:05.786Z,22.70
2022-10-13T04:48:32.545Z,19.83
2022-10-13T04:51:10.929Z,21.57
2022-10-13T04:53:37.840Z,18.10
2022-10-13T04:56:08.358Z,24.43
2022-10-13T04:58:36.388Z,21.20
2022-10-13T05:01:05.171Z,25.40
2022-10-13T05:03:32.362Z,22.90
2022-10-13T05:05:59.384Z,21.17
2022-10-13T05:08:26.250Z,22.27
2022-10-13T05:10:57.402Z,19.37
2022-10-13T05:13:24.975Z,24.50
2022-10-13T05:15:51.882Z,21.67
2022-10-13T05:18:18.783Z,26.97
2022-10-13T05:20:46.460Z,24.27
2022-10-13T05:23:14.381Z,24.97
2022-10-13T05:25:41.103Z,27.27
2022-10-13T05:28:08.922Z,27.07
2022-10-13T05:30:35.929Z,28.30
2022-10-13T05:33:02.551Z,32.00
2022-10-13T05:35:29.292Z,30.73
2022-10-13T05:37:55.981Z,34.93
2022-10-13T05:40:22.867Z,38.90
2022-10-13T05:42:53.421Z,44.27
2022-10-13T05:45:21.900Z,33.43
2022-10-13T05:47:48.530Z,29.57
2022-10-13T05:50:15.350Z,25.90
2022-10-13T05:52:43.136Z,26.23
2022-10-13T05:55:13.595Z,29.90
2022-10-13T05:57:43.310Z,23.87
2022-10-13T06:00:20.105Z,21.57
2022-10-13T06:02:59.514Z,19.60
2022-10-13T06:05:27.952Z,18.77
2022-10-13T06:07:55.962Z,21.27
2022-10-13T06:10:23.547Z,22.53
2022-10-13T06:12:50.370Z,19.87
2022-10-13T06:15:17.213Z,31.67
2022-10-13T06:17:44.049Z,25.43
2022-10-13T06:20:11.206Z,29.17
2022-10-13T06:22:38.663Z,27.23
2022-10-13T06:25:06.885Z,28.90
2022-10-13T06:27:33.943Z,25.13
2022-10-13T06:30:00.552Z,31.73
2022-10-13T06:32:27.348Z,30.33
2022-10-13T06:34:54.160Z,29.60
2022-10-13T06:37:26.194Z,31.03
2022-10-13T06:39:54.035Z,28.37
2022-10-13T06:42:20.935Z,39.47
2022-10-13T06:44:48.013Z,26.90
2022-10-13T06:47:14.680Z,29.47
2022-10-13T06:49:41.361Z,27.40
2022-10-13T06:52:08.772Z,29.10
2022-10-13T06:54:35.498Z,23.70
2022-10-13T06:57:02.205Z,24.33
2022-10-13T06:59:28.821Z,27.97
2022-10-13T07:01:55.541Z,27.37
2022-10-13T07:04:22.995Z,27.60
2022-10-13T07:06:50.930Z,25.40
2022-10-13T07:09:17.862Z,22.97
2022-10-13T07:11:45.517Z,23.47
2022-10-13T07:14:12.993Z,25.63
2022-10-13T07:16:40.094Z,21.27
2022-10-13T07:19:06.818Z,21.60
2022-10-13T07:21:33.462Z,23.37
2022-10-13T07:24:02.286Z,23.20
2022-10-13T07:26:28.917Z,24.63
2022-10-13T07:28:55.647Z,28.37
2022-10-13T07:31:22.428Z,24.13
2022-10-13T07:33:51.492Z,21.90
2022-10-13T07:36:19.375Z,22.53
2022-10-13T07:38:46.890Z,20.13
2022-10-13T07:41:14.245Z,23.50
2022-10-13T07:43:41.225Z,31.90
2022-10-13T07:46:08.860Z,25.03
2022-10-13T07:48:36.060Z,27.07
2022-10-13T07:51:07.941Z,30.77
2022-10-13T07:53:35.721Z,29.30
2022-10-13T07:56:04.061Z,22.53
2022-10-13T07:58:30.787Z,22.50
2022-10-13T08:01:02.127Z,25.43
2022-10-13T08:03:29.595Z,26.00
2022-10-13T08:05:59.255Z,23.17
2022-10-13T08:08:26.087Z,28.73
2022-10-13T08:13:20.748Z,25.37
2022-10-13T08:15:47.559Z,33.80
2022-10-13T08:18:15.404Z,30.10
2022-10-13T08:20:43.990Z,37.00
2022-10-13T08:23:12.289Z,28.97
2022-10-13T08:25:43.962Z,28.23
2022-10-13T08:28:24.265Z,24.63
2022-10-13T08:30:51.836Z,24.27
2022-10-13T08:33:18.913Z,29.27
2022-10-13T08:35:45.860Z,22.67
2022-10-13T08:38:12.836Z,28.30
2022-10-13T08:40:39.984Z,28.60
2022-10-13T08:43:15.769Z,28.27
2022-10-13T08:45:42.675Z,26.50
2022-10-13T08:48:19.801Z,28.07
2022-10-13T08:50:50.802Z,27.33
2022-10-13T08:53:37.678Z,26.83
2022-10-13T08:56:27.722Z,25.23
2022-10-13T08:58:56.651Z,22.13
2022-10-13T09:01:27.947Z,30.17
2022-10-13T09:04:02.474Z,27.53
2022-10-13T09:06:33.824Z,26.77
2022-10-13T09:09:07.317Z,28.40
2022-10-13T09:11:39.427Z,28.93
2022-10-13T09:14:09.415Z,22.67
2022-10-13T09:16:38.400Z,25.43
2022-10-13T09:19:28.626Z,23.27
2022-10-13T09:21:58.229Z,28.70
2022-10-13T09:24:26.890Z,25.93
2022-10-13T09:27:12.508Z,24.03
2022-10-13T09:29:39.726Z,25.50
2022-10-13T09:32:23.756Z,28.07
2022-10-13T09:34:52.047Z,26.17
2022-10-13T09:37:24.233Z,23.40
2022-10-13T09:40:14.000Z,29.17
2022-10-13T09:42:40.885Z,28.37
2022-10-13T09:45:20.908Z,32.00
2022-10-13T09:47:53.796Z,27.43
2022-10-13T09:50:31.975Z,26.23
2022-10-13T09:53:21.955Z,29.30
2022-10-13T09:55:49.594Z,32.90
2022-10-13T09:58:19.723Z,24.63
2022-10-13T10:00:48.997Z,29.73
2022-10-13T10:03:30.839Z,32.60
2022-10-13T10:06:00.901Z,23.73
2022-10-13T10:09:05.477Z,30.70
2022-10-13T10:11:41.322Z,31.20
2022-10-13T10:14:27.533Z,33.47
2022-10-13T10:17:21.502Z,31.53
2022-10-13T10:20:20.042Z,34.17
2022-10-13T10:23:04.128Z,37.83
2022-10-13T10:25:49.153Z,39.63
2022-10-13T10:28:38.723Z,34.07
2022-10-13T10:31:05.404Z,36.73
2022-10-13T10:33:49.688Z,35.23
2022-10-13T10:36:38.331Z,35.07
2022-10-13T10:39:23.315Z,40.50
2022-10-13T10:42:00.786Z,36.43
2022-10-13T10:44:40.654Z,43.33
2022-10-13T10:47:19.740Z,36.73
2022-10-13T10:49:51.888Z,41.23
2022-10-13T10:52:30.192Z,43.53
2022-10-13T10:55:18.158Z,44.27
2022-10-13T10:57:56.920Z,54.37
2022-10-13T11:00:23.891Z,45.20
2022-10-13T11:03:13.882Z,38.47
2022-10-13T11:06:03.312Z,44.00
2022-10-13T11:08:50.193Z,47.30
2022-10-13T11:11:25.107Z,39.67
2022-10-13T11:14:15.894Z,33.90
2022-10-13T11:17:02.356Z,36.50
2022-10-13T11:19:37.738Z,36.77
2022-10-13T11:22:04.332Z,32.33
2022-10-13T11:24:34.011Z,31.93
2022-10-13T11:27:15.738Z,33.47
2022-10-13T11:29:57.864Z,33.10
2022-10-13T11:32:41.135Z,31.63
2022-10-13T11:35:10.793Z,25.57
2022-10-13T11:38:06.897Z,32.67
2022-10-13T11:40:46.367Z,27.77
2022-10-13T11:43:26.952Z,29.67
2022-10-13T11:46:14.474Z,29.07
2022-10-13T11:49:04.109Z,26.30
2022-10-13T11:52:04.666Z,32.10
2022-10-13T11:55:00.456Z,30.60
2022-10-13T11:57:27.782Z,30.77
2022-10-13T11:59:56.531Z,28.67
2022-10-13T12:02:26.467Z,28.27
2022-10-13T12:05:18.939Z,29.37
2022-10-13T12:07:48.034Z,27.03
2022-10-13T12:10:29.545Z,32.10
2022-10-13T12:12:56.410Z,32.97
2022-10-13T12:15:36.868Z,29.30
2022-10-13T12:18:45.229Z,27.43
2022-10-13T12:21:19.791Z,26.40
2022-10-13T12:23:48.007Z,28.53
2022-10-13T12:26:25.267Z,23.80
2022-10-13T12:29:00.941Z,29.30
2022-10-13T12:31:40.647Z,30.13
2022-10-13T12:34:19.302Z,24.23
2022-10-13T12:39:19.705Z,26.00
2022-10-13T12:41:48.470Z,29.20
2022-10-13T12:44:27.501Z,30.17
2022-10-13T12:46:59.237Z,30.53
2022-10-13T12:49:30.749Z,27.57
2022-10-13T12:52:08.987Z,26.07
2022-10-13T12:54:51.075Z,36.37
2022-10-13T12:57:35.212Z,27.70
2022-10-13T13:00:26.611Z,31.90
2022-10-13T13:03:00.749Z,28.53
2022-10-13T13:05:34.028Z,27.13
2022-10-13T13:08:01.664Z,34.77
2022-10-13T13:10:28.704Z,27.17
2022-10-13T13:12:56.175Z,27.43
2022-10-13T13:15:25.552Z,31.93
2022-10-13T13:17:58.444Z,31.83
2022-10-13T13:20:32.260Z,26.13
2022-10-13T13:22:59.677Z,27.50
2022-10-13T13:25:27.091Z,29.77
2022-10-13T13:27:53.847Z,28.70
2022-10-13T13:30:23.099Z,30.27
2022-10-13T13:32:50.382Z,31.20
2022-10-13T13:35:17.210Z,24.87
2022-10-13T13:37:51.654Z,31.67
2022-10-13T13:40:25.164Z,28.23
2022-10-13T13:42:52.228Z,26.70
2022-10-13T13:45:21.041Z,26.07
2022-10-13T13:47:47.947Z,30.70
2022-10-13T13:50:22.733Z,29.60
2022-10-13T13:52:49.541Z,29.33
2022-10-13T13:55:16.724Z,27.67
2022-10-13T13:57:43.668Z,27.23
2022-10-13T14:00:15.069Z,32.93
2022-10-13T14:02:43.682Z,32.17
2022-10-13T14:05:11.248Z,30.47
2022-10-13T14:07:38.633Z,32.43
2022-10-13T14:10:06.607Z,28.00
2022-10-13T14:12:33.986Z,30.07
2022-10-13T14:15:00.798Z,27.30
2022-10-13T14:17:28.103Z,32.80
2022-10-13T14:19:55.416Z,26.73
2022-10-13T14:22:23.487Z,27.67
2022-10-13T14:24:50.346Z,26.37
2022-10-13T14:27:17.027Z,22.63
2022-10-13T14:29:43.856Z,27.00
2022-10-13T14:32:10.762Z,32.90
2022-10-13T14:34:37.509Z,27.33
2022-10-13T14:37:04.216Z,29.20
2022-10-13T14:39:30.854Z,30.67
2022-10-13T14:41:57.604Z,28.17
2022-10-13T14:44:25.254Z,34.00
2022-10-13T14:46:51.975Z,29.43
2022-10-13T14:49:18.582Z,25.77
2022-10-13T14:51:45.209Z,29.07
2022-10-13T14:54:11.867Z,28.13
2022-10-13T14:56:38.589Z,30.43
2022-10-13T14:59:07.209Z,25.53
2022-10-13T15:01:34.318Z,25.50
2022-10-13T15:04:02.108Z,26.43
2022-10-13T15:06:29.312Z,23.40
2022-10-13T15:08:56.672Z,27.23
2022-10-13T15:11:24.052Z,25.87
2022-10-13T15:13:51.005Z,24.23
2022-10-13T15:16:23.118Z,28.90
2022-10-13T15:18:50.179Z,29.83
2022-10-13T15:21:17.354Z,27.07
2022-10-13T15:23:44.400Z,31.20
2022-10-13T15:26:12.979Z,29.03
2022-10-13T15:28:42.430Z,25.23
2022-10-13T15:31:09.170Z,26.80
2022-10-13T15:33:35.859Z,25.63
2022-10-13T15:36:03.531Z,28.57
2022-10-13T15:38:30.476Z,34.77
2022-10-13T15:41:00.861Z,27.47
2022-10-13T15:43:28.029Z,28.70
2022-10-13T15:46:03.178Z,26.27
2022-10-13T15:48:30.479Z,29.50
2022-10-13T15:50:57.164Z,26.43
2022-10-13T15:53:24.195Z,26.90
2022-10-13T15:55:50.996Z,26.03
2022-10-13T15:58:18.055Z,29.00
2022-10-13T16:00:45.594Z,28.83
2022-10-13T16:03:15.518Z,29.97
2022-10-13T16:05:43.636Z,26.83
2022-10-13T16:08:10.487Z,26.57
2022-10-13T16:10:43.616Z,26.50
2022-10-13T16:13:14.255Z,24.83
2022-10-13T16:15:41.904Z,25.33
2022-10-13T16:18:08.546Z,25.67
2022-10-13T16:20:37.781Z,23.80
2022-10-13T16:23:05.271Z,28.43
2022-10-13T16:25:32.075Z,26.27
2022-10-13T16:28:01.700Z,21.43
2022-10-13T16:30:30.311Z,25.93
2022-10-13T16:32:58.053Z,28.63
2022-10-13T16:35:24.845Z,28.10
2022-10-13T16:37:51.500Z,25.90
2022-10-13T16:40:18.139Z,30.20
2022-10-13T16:42:45.356Z,27.60
2022-10-13T16:45:13.045Z,24.80
2022-10-13T16:47:39.829Z,27.20
2022-10-13T16:50:09.605Z,30.80
2022-10-13T16:52:37.594Z,32.90
2022-10-13T16:55:05.679Z,32.33
2022-10-13T16:57:32.640Z,31.87
2022-10-13T16:59:59.387Z,34.97
2022-10-13T17:02:26.037Z,32.73
2022-10-13T17:04:52.950Z,35.37
2022-10-13T17:07:19.831Z,35.67
2022-10-13T17:09:47.260Z,36.63
2022-10-13T17:12:14.388Z,39.90
2022-10-13T17:14:41.097Z,36.70
2022-10-13T17:17:07.746Z,36.23
2022-10-13T17:19:34.627Z,41.73
2022-10-13T17:22:01.356Z,41.40
2022-10-13T17:24:29.791Z,37.23
2022-10-13T17:26:56.588Z,41.67
2022-10-13T17:29:23.240Z,40.47
2022-10-13T17:31:49.913Z,40.73
2022-10-13T17:34:16.592Z,41.20
2022-10-13T17:36:43.308Z,45.67
2022-10-13T17:39:11.454Z,45.97
2022-10-13T17:41:38.187Z,41.33
2022-10-13T17:44:04.892Z,46.70
2022-10-13T17:46:37.966Z,42.70
2022-10-13T17:49:07.518Z,44.97
2022-10-13T17:51:34.172Z,46.13
2022-10-13T17:54:01.320Z,42.17
2022-10-13T17:56:28.074Z,44.40
2022-10-13T17:58:55.125Z,45.00
2022-10-13T18:01:32.522Z,42.50
2022-10-13T18:04:05.294Z,49.70
2022-10-13T18:06:40.423Z,44.93
2022-10-13T18:09:09.694Z,48.97
2022-10-13T18:11:37.196Z,45.83
2022-10-13T18:14:04.580Z,50.20
2022-10-13T18:16:31.302Z,46.57
2022-10-13T18:18:58.080Z,54.30
2022-10-13T18:21:26.744Z,44.47
2022-10-13T18:23:55.535Z,49.87
2022-10-13T18:26:22.627Z,42.13
2022-10-13T18:28:50.624Z,46.87
2022-10-13T18:31:18.718Z,49.03
2022-10-13T18:33:46.582Z,45.03
2022-10-13T18:36:19.794Z,48.60
2022-10-13T18:38:50.141Z,48.97
2022-10-13T18:41:18.382Z,42.77
2022-10-13T18:43:45.081Z,54.57
2022-10-13T18:46:12.254Z,50.17
2022-10-13T18:48:40.562Z,45.03
2022-10-13T18:51:12.714Z,44.53
2022-10-13T18:53:41.726Z,44.70
2022-10-13T18:56:14.020Z,55.37
2022-10-13T18:58:40.685Z,44.83
2022-10-13T19:01:10.009Z,52.17
2022-10-13T19:03:38.687Z,54.27
2022-10-13T19:06:07.753Z,59.33
2022-10-13T19:08:35.032Z,58.07
2022-10-13T19:11:01.879Z,57.60
2022-10-13T19:13:28.703Z,51.23
2022-10-13T19:16:02.223Z,48.80
2022-10-13T19:18:29.187Z,60.07
2022-10-13T19:20:55.932Z,57.73
2022-10-13T19:23:22.677Z,52.27
2022-10-13T19:25:49.406Z,60.23
2022-10-13T19:28:16.518Z,53.23
2022-10-13T19:30:43.706Z,55.20
2022-10-13T19:33:12.453Z,57.50
2022-10-13T19:35:48.087Z,54.47
2022-10-13T19:38:16.073Z,56.30
2022-10-13T19:40:46.733Z,51.00
2022-10-13T19:43:13.356Z,48.47
2022-10-13T19:45:48.881Z,56.77
2022-10-13T19:48:16.845Z,54.70
2022-10-13T19:50:43.814Z,51.67
2022-10-13T19:53:11.882Z,53.17
2022-10-13T19:55:40.169Z,55.80
2022-10-13T19:58:06.894Z,54.90
2022-10-13T20:00:34.798Z,49.73
2022-10-13T20:03:03.131Z,55.40
2022-10-13T20:05:30.004Z,52.33
2022-10-13T20:07:57.682Z,49.23
2022-10-13T20:10:24.469Z,54.70
2022-10-13T20:12:51.379Z,50.50
2022-10-13T20:15:18.090Z,52.37
2022-10-13T20:17:44.685Z,44.80
2022-10-13T20:20:11.400Z,49.17
2022-10-13T20:22:39.552Z,55.40
2022-10-13T20:25:09.595Z,40.73
2022-10-13T20:27:36.236Z,42.80
2022-10-13T20:30:03.434Z,41.97
2022-10-13T20:32:30.222Z,44.23
2022-10-13T20:34:56.977Z,41.03
2022-10-13T20:37:23.887Z,46.13
2022-10-13T20:39:50.791Z,42.27
2022-10-13T20:42:17.566Z,39.53
2022-10-13T20:44:44.241Z,36.10
2022-10-13T20:47:10.869Z,42.77
2022-10-13T20:49:37.603Z,39.37
2022-10-13T20:52:04.247Z,41.33
2022-10-13T20:54:30.891Z,43.87
2022-10-13T20:56:57.943Z,40.33
2022-10-13T20:59:24.598Z,36.27
2022-10-13T21:01:51.407Z,43.45
2022-10-13T21:04:18.056Z,40.50
2022-10-13T21:06:44.892Z,36.30
2022-10-13T21:09:11.840Z,34.10
2022-10-13T21:11:39.604Z,36.80
2022-10-13T21:14:08.443Z,36.67
2022-10-13T21:16:35.833Z,37.03
2022-10-13T21:19:03.320Z,41.20
2022-10-13T21:21:31.817Z,31.57
2022-10-13T21:24:00.938Z,39.23
2022-10-13T21:26:29.403Z,30.73
2022-10-13T21:28:56.838Z,34.17
2022-10-13T21:31:24.805Z,32.70
2022-10-13T21:33:51.730Z,30.97
2022-10-13T21:36:21.684Z,31.67
2022-10-13T21:38:51.677Z,33.17
2022-10-13T21:41:18.469Z,33.23
2022-10-13T21:43:45.218Z,32.17
2022-10-13T21:46:31.739Z,29.13
2022-10-13T21:49:00.724Z,31.60
2022-10-13T21:51:30.310Z,35.57
2022-10-13T21:53:59.511Z,36.30
2022-10-13T21:56:27.448Z,33.03
2022-10-13T21:58:54.980Z,31.90
2022-10-13T22:01:22.083Z,31.57
2022-10-13T22:03:52.147Z,27.53
2022-10-13T22:06:19.714Z,31.40
2022-10-13T22:08:49.840Z,25.87
2022-10-13T22:11:17.532Z,29.83
2022-10-13T22:13:44.426Z,31.53
2022-10-13T22:16:23.425Z,30.97
2022-10-13T22:18:54.949Z,27.90
2022-10-13T22:21:30.206Z,31.63
2022-10-13T22:24:02.191Z,27.73
2022-10-13T22:26:30.912Z,26.63
2022-10-13T22:28:59.012Z,25.70
2022-10-13T22:31:26.041Z,27.73
2022-10-13T22:33:53.804Z,30.13
2022-10-13T22:36:25.077Z,26.40
2022-10-13T22:38:54.165Z,29.00
2022-10-13T22:41:21.589Z,32.23
2022-10-13T22:43:56.581Z,30.30
2022-10-13T22:46:25.494Z,25.77
2022-10-13T22:48:52.525Z,31.90
2022-10-13T22:51:21.635Z,29.13
2022-10-13T22:53:49.134Z,29.33
2022-10-13T22:56:27.263Z,32.40
2022-10-13T22:58:59.634Z,33.17
2022-10-13T23:01:26.913Z,33.17
2022-10-13T23:03:55.774Z,35.97
2022-10-13T23:06:28.425Z,34.53
2022-10-13T23:08:55.982Z,35.37
2022-10-13T23:11:22.981Z,32.03
2022-10-13T23:13:50.163Z,40.00
2022-10-13T23:16:24.811Z,35.37
2022-10-13T23:18:51.561Z,34.30
2022-10-13T23:21:19.983Z,36.10
2022-10-13T23:23:47.558Z,30.23
2022-10-13T23:26:16.279Z,30.53
2022-10-13T23:28:43.123Z,31.60
2022-10-13T23:31:13.572Z,38.47
2022-10-13T23:33:40.579Z,34.47
2022-10-13T23:36:08.528Z,37.87
2022-10-13T23:38:35.384Z,39.97
2022-10-13T23:41:07.369Z,35.20
2022-10-13T23:43:34.105Z,36.60
2022-10-13T23:46:01.011Z,33.07
2022-10-13T23:48:28.239Z,38.10
2022-10-13T23:50:55.115Z,35.27
2022-10-13T23:53:21.835Z,35.77
2022-10-13T23:55:48.620Z,38.83
2022-10-13T23:58:15.601Z,33.83
